Time;durP1;ratioP1;P1;durP2;ratioP2;P2;SDS_P1;SDS_P2;PMS_P1;PMS_P2;Temp;Humidity;BMP_temperature;BMP_pressure;BME280_temperature;BME280_humidity;BME280_pressure;Samples;Min_cycle;Max_cycle;Signal;HPM_P1;HPM_P2
2024/01/31 00:01:44;;;;;;;27.45;11.77;;;5.70;99.90;;;;;;4987587;28;20193;-71
2024/01/31 00:04:10;;;;;;;26.48;11.68;;;5.70;99.90;;;;;;4989448;28;20511;-71
2024/01/31 00:06:35;;;;;;;25.25;12.75;;;5.70;99.90;;;;;;5016418;28;20032;-70
2024/01/31 00:09:01;;;;;;;24.67;11.60;;;5.80;99.90;;;;;;5009041;28;20108;-71
2024/01/31 00:11:30;;;;;;;27.63;12.93;;;5.70;99.90;;;;;;5006582;28;20385;-74
2024/01/31 00:13:56;;;;;;;23.95;11.32;;;5.70;99.90;;;;;;5007965;28;20065;-70
2024/01/31 00:16:22;;;;;;;29.23;12.43;;;5.70;99.90;;;;;;5003149;28;20088;-75
2024/01/31 00:18:49;;;;;;;29.85;12.50;;;5.80;99.90;;;;;;5004564;28;20417;-72
2024/01/31 00:21:16;;;;;;;24.95;12.20;;;5.80;99.90;;;;;;5008957;28;20687;-72
2024/01/31 00:23:41;;;;;;;23.30;12.13;;;5.80;99.90;;;;;;4999100;28;20109;-71
2024/01/31 00:26:07;;;;;;;25.42;11.77;;;5.80;99.90;;;;;;5004361;28;20129;-72
2024/01/31 00:28:33;;;;;;;26.63;12.07;;;5.70;99.90;;;;;;5009366;28;20131;-71
2024/01/31 00:30:58;;;;;;;26.10;11.57;;;5.70;99.90;;;;;;4991661;28;20045;-72
2024/01/31 00:33:24;;;;;;;29.63;13.40;;;5.70;99.90;;;;;;5004060;28;20471;-73
2024/01/31 00:35:49;;;;;;;24.50;12.35;;;5.80;99.90;;;;;;5009724;28;20048;-72
2024/01/31 00:38:15;;;;;;;25.63;12.43;;;5.60;99.90;;;;;;5012603;28;20034;-72
2024/01/31 00:40:40;;;;;;;26.00;11.90;;;5.50;99.90;;;;;;5011201;28;20096;-71
2024/01/31 00:43:09;;;;;;;27.90;12.90;;;5.50;99.90;;;;;;5012554;28;20037;-71
2024/01/31 00:45:35;;;;;;;26.05;12.18;;;5.60;99.90;;;;;;5002750;28;20046;-71
2024/01/31 00:48:00;;;;;;;28.33;12.77;;;5.60;99.90;;;;;;5004925;28;20029;-72
2024/01/31 00:50:26;;;;;;;25.52;11.68;;;5.60;99.90;;;;;;5011545;28;20038;-72
2024/01/31 00:52:52;;;;;;;25.23;12.48;;;5.70;99.90;;;;;;4993694;28;20038;-72
2024/01/31 00:55:17;;;;;;;31.05;14.13;;;5.70;99.90;;;;;;5000297;28;20034;-72
2024/01/31 00:57:44;;;;;;;28.17;13.07;;;5.70;99.90;;;;;;5011415;28;20565;-72
2024/01/31 01:00:11;;;;;;;26.80;12.60;;;5.70;99.90;;;;;;5005418;28;20022;-70
2024/01/31 01:02:40;;;;;;;32.15;13.32;;;5.80;99.90;;;;;;4991743;28;20446;-72
2024/01/31 01:05:09;;;;;;;29.33;13.32;;;5.80;99.90;;;;;;5004770;28;20421;-72
2024/01/31 01:07:41;;;;;;;35.35;14.10;;;5.90;99.90;;;;;;5010890;28;20041;-72
2024/01/31 01:10:12;;;;;;;24.52;12.48;;;5.90;99.90;;;;;;5007671;28;20048;-72
2024/01/31 01:12:38;;;;;;;22.23;11.43;;;5.90;99.90;;;;;;4997218;28;20040;-73
2024/01/31 01:15:04;;;;;;;26.45;12.48;;;5.70;99.90;;;;;;5007365;28;20436;-72
2024/01/31 01:17:30;;;;;;;27.13;12.88;;;5.60;99.90;;;;;;4997345;28;20212;-73
2024/01/31 01:19:55;;;;;;;28.90;13.00;;;5.60;99.90;;;;;;5005147;28;20106;-71
2024/01/31 01:22:21;;;;;;;25.05;12.48;;;5.60;99.90;;;;;;5011764;28;20414;-72
2024/01/31 01:24:46;;;;;;;25.85;12.18;;;5.70;99.90;;;;;;5006024;28;20030;-72
2024/01/31 01:27:12;;;;;;;25.55;11.82;;;5.70;99.90;;;;;;4999297;28;20037;-72
2024/01/31 01:29:38;;;;;;;25.85;12.18;;;5.70;99.90;;;;;;5010063;28;20034;-72
2024/01/31 01:32:04;;;;;;;27.30;11.52;;;5.70;99.90;;;;;;5010494;28;20046;-73
2024/01/31 01:34:29;;;;;;;25.45;12.50;;;5.80;99.90;;;;;;5006028;28;20026;-72
2024/01/31 01:36:55;;;;;;;25.67;11.75;;;5.80;99.90;;;;;;5010268;28;20041;-72
2024/01/31 01:39:20;;;;;;;27.20;12.60;;;5.90;99.90;;;;;;4990989;28;20073;-75
2024/01/31 01:41:52;;;;;;;25.20;11.38;;;5.90;99.90;;;;;;5000992;28;20627;-72
2024/01/31 01:44:18;;;;;;;24.75;11.57;;;5.90;99.90;;;;;;5001071;28;20058;-72
2024/01/31 01:46:44;;;;;;;23.95;11.43;;;5.90;99.90;;;;;;5006935;28;20137;-71
2024/01/31 01:49:31;;;;;;;24.25;11.50;;;5.90;99.90;;;;;;5008711;28;20584;-73
2024/01/31 01:51:56;;;;;;;26.35;12.57;;;5.90;99.90;;;;;;5010702;28;20057;-73
2024/01/31 01:54:22;;;;;;;26.10;11.02;;;5.90;99.90;;;;;;5005886;28;20030;-72
2024/01/31 01:56:49;;;;;;;28.48;12.13;;;5.80;99.90;;;;;;4998580;28;20033;-73
2024/01/31 01:59:15;;;;;;;26.30;12.73;;;5.80;99.90;;;;;;5007096;28;20554;-71
2024/01/31 02:01:43;;;;;;;24.73;11.70;;;5.80;99.90;;;;;;4995499;28;20042;-72
2024/01/31 02:04:09;;;;;;;29.77;11.13;;;5.90;99.90;;;;;;5000475;28;20034;-72
2024/01/31 02:06:34;;;;;;;25.40;11.25;;;5.90;99.90;;;;;;5004852;28;20030;-71
2024/01/31 02:09:02;;;;;;;24.05;11.32;;;5.90;99.90;;;;;;4996096;28;20106;-72
2024/01/31 02:11:29;;;;;;;27.67;12.50;;;6.10;99.90;;;;;;5004125;28;20241;-75
2024/01/31 02:13:55;;;;;;;25.25;11.63;;;6.10;99.90;;;;;;5009361;28;20042;-73
2024/01/31 02:16:20;;;;;;;24.52;11.65;;;6.30;99.90;;;;;;5004861;28;20366;-72
2024/01/31 02:18:46;;;;;;;24.30;11.43;;;6.30;99.90;;;;;;5000653;28;20049;-73
2024/01/31 02:21:14;;;;;;;23.80;11.45;;;6.40;99.90;;;;;;5003847;28;20041;-71
2024/01/31 02:23:39;;;;;;;22.60;10.73;;;6.40;99.90;;;;;;5008196;28;20053;-72
2024/01/31 02:26:05;;;;;;;25.00;11.23;;;6.40;99.90;;;;;;5009569;28;20478;-72
2024/01/31 02:28:31;;;;;;;22.10;11.40;;;6.30;99.90;;;;;;5007505;28;20033;-74
2024/01/31 02:30:57;;;;;;;22.00;11.05;;;6.30;99.90;;;;;;4998668;28;20030;-72
2024/01/31 02:33:23;;;;;;;23.95;11.10;;;6.30;99.90;;;;;;5010256;28;20453;-70
2024/01/31 02:35:48;;;;;;;20.38;10.80;;;6.20;99.90;;;;;;4992937;28;20026;-71
2024/01/31 02:38:14;;;;;;;23.17;11.00;;;6.20;99.90;;;;;;5007248;28;20390;-72
2024/01/31 02:40:39;;;;;;;35.47;12.15;;;6.10;99.90;;;;;;4997406;28;20065;-71
2024/01/31 02:43:05;;;;;;;26.80;12.20;;;6.20;99.90;;;;;;4998358;28;20035;-72
2024/01/31 02:45:31;;;;;;;32.65;11.57;;;6.20;99.90;;;;;;5002896;28;20538;-75
2024/01/31 02:47:56;;;;;;;23.45;11.02;;;6.30;99.90;;;;;;5009539;28;20057;-72
2024/01/31 02:50:22;;;;;;;21.30;11.05;;;6.30;99.90;;;;;;5009718;28;20113;-72
2024/01/31 02:52:48;;;;;;;24.30;10.82;;;6.30;99.90;;;;;;5007546;28;20791;-72
2024/01/31 02:55:14;;;;;;;26.10;11.65;;;6.30;99.90;;;;;;4999712;28;20027;-71
2024/01/31 02:57:40;;;;;;;21.92;10.77;;;6.30;99.90;;;;;;5004557;28;20495;-71
2024/01/31 03:00:06;;;;;;;27.25;10.63;;;6.20;99.90;;;;;;4991175;28;20058;-72
2024/01/31 03:02:32;;;;;;;24.35;11.77;;;6.20;99.90;;;;;;5005314;28;20030;-73
2024/01/31 03:04:58;;;;;;;24.75;12.20;;;6.20;99.90;;;;;;5007945;28;20538;-72
2024/01/31 03:07:23;;;;;;;24.80;11.45;;;6.20;99.90;;;;;;5006302;28;20076;-72
2024/01/31 03:09:49;;;;;;;22.27;10.68;;;6.30;99.90;;;;;;5003679;28;20034;-70
2024/01/31 03:12:15;;;;;;;24.63;12.07;;;6.30;99.90;;;;;;5008192;28;20057;-73
2024/01/31 03:14:40;;;;;;;24.48;11.52;;;6.30;99.90;;;;;;4992635;28;20456;-71
2024/01/31 03:17:06;;;;;;;22.33;11.45;;;6.30;99.90;;;;;;5004044;28;20034;-72
2024/01/31 03:19:32;;;;;;;29.23;11.40;;;6.40;99.90;;;;;;5008680;28;20025;-75
2024/01/31 03:21:58;;;;;;;22.15;10.80;;;6.40;99.90;;;;;;5007162;28;20092;-73
2024/01/31 03:24:24;;;;;;;23.38;10.90;;;6.30;99.90;;;;;;5008664;28;20430;-72
2024/01/31 03:26:50;;;;;;;25.80;11.20;;;6.30;99.90;;;;;;5006074;28;20505;-72
2024/01/31 03:29:16;;;;;;;20.35;10.88;;;6.40;99.90;;;;;;5007996;28;20382;-72
2024/01/31 03:31:42;;;;;;;22.52;9.88;;;6.30;99.90;;;;;;5007621;28;20034;-72
2024/01/31 03:34:07;;;;;;;22.35;10.27;;;6.20;99.90;;;;;;5007582;28;20036;-73
2024/01/31 03:36:33;;;;;;;21.95;11.23;;;6.10;99.90;;;;;;5002728;28;20122;-75
2024/01/31 03:38:59;;;;;;;27.65;12.63;;;6.20;99.90;;;;;;4990440;28;20037;-72
2024/01/31 03:41:26;;;;;;;25.30;12.35;;;6.20;99.90;;;;;;5014904;28;20038;-72
2024/01/31 03:43:51;;;;;;;21.65;10.93;;;6.30;99.90;;;;;;5006415;28;20057;-72
2024/01/31 03:46:17;;;;;;;20.70;10.77;;;6.30;99.90;;;;;;5006960;28;20057;-72
2024/01/31 03:48:43;;;;;;;21.85;10.45;;;6.30;99.90;;;;;;5008096;28;20058;-72
2024/01/31 03:51:22;;;;;;;27.20;11.45;;;6.20;99.90;;;;;;4996638;28;20045;-71
2024/01/31 03:53:49;;;;;;;22.45;11.68;;;6.20;99.90;;;;;;4996735;28;20030;-72
2024/01/31 03:56:15;;;;;;;27.52;11.75;;;6.30;99.90;;;;;;5007068;28;20367;-69
2024/01/31 03:58:42;;;;;;;35.00;12.75;;;6.30;99.90;;;;;;5008381;28;20030;-67
2024/01/31 04:01:08;;;;;;;28.73;13.90;;;6.30;99.90;;;;;;5007463;28;20133;-68
2024/01/31 04:03:36;;;;;;;25.95;11.90;;;6.50;99.90;;;;;;4992772;28;20109;-69
2024/01/31 04:06:02;;;;;;;27.00;11.80;;;6.50;99.90;;;;;;5000938;28;20481;-68
2024/01/31 04:08:27;;;;;;;29.08;11.88;;;6.50;99.90;;;;;;4997585;28;20038;-68
2024/01/31 04:10:53;;;;;;;32.67;14.57;;;6.50;99.90;;;;;;5008004;28;20041;-67
2024/01/31 04:13:19;;;;;;;37.50;15.55;;;6.50;99.90;;;;;;5008596;28;20057;-67
2024/01/31 04:15:45;;;;;;;34.55;15.35;;;6.60;99.90;;;;;;5007036;28;20254;-68
2024/01/31 04:18:11;;;;;;;27.92;13.45;;;6.70;99.90;;;;;;4993705;28;20079;-67
2024/01/31 04:20:40;;;;;;;28.10;14.05;;;6.80;99.90;;;;;;5003523;28;20038;-71
2024/01/31 04:23:06;;;;;;;35.60;14.65;;;6.80;99.90;;;;;;5000688;28;20160;-68
2024/01/31 04:25:32;;;;;;;31.13;14.73;;;6.90;99.90;;;;;;4991214;28;20038;-68
2024/01/31 04:27:58;;;;;;;25.38;12.68;;;7.00;99.90;;;;;;5007111;28;20190;-70
2024/01/31 04:30:24;;;;;;;27.55;11.82;;;7.00;99.90;;;;;;5008631;28;20042;-68
2024/01/31 04:32:49;;;;;;;26.42;11.68;;;6.90;99.90;;;;;;5007640;28;20103;-67
2024/01/31 04:35:15;;;;;;;35.35;14.32;;;6.80;99.90;;;;;;5008693;28;20041;-68
2024/01/31 04:37:40;;;;;;;24.10;10.48;;;6.70;99.90;;;;;;4991372;28;20026;-66
2024/01/31 04:40:07;;;;;;;23.55;11.55;;;6.70;99.90;;;;;;4990204;28;20518;-68
2024/01/31 04:42:32;;;;;;;19.23;9.98;;;6.70;99.90;;;;;;4998199;28;20124;-67
2024/01/31 04:44:58;;;;;;;23.48;11.02;;;6.60;99.90;;;;;;4997848;28;20110;-69
2024/01/31 04:47:25;;;;;;;22.75;10.35;;;6.50;99.90;;;;;;5004408;28;20482;-67
2024/01/31 04:49:58;;;;;;;20.60;10.55;;;6.50;99.90;;;;;;5005254;28;20028;-66
2024/01/31 04:52:25;;;;;;;19.70;10.70;;;6.50;99.90;;;;;;5008407;28;20041;-68
2024/01/31 04:54:50;;;;;;;26.40;12.82;;;6.40;99.90;;;;;;5006333;28;20494;-67
2024/01/31 04:57:17;;;;;;;27.77;11.73;;;6.40;99.90;;;;;;4999537;28;20050;-68
2024/01/31 04:59:42;;;;;;;23.23;11.95;;;6.40;99.90;;;;;;5001387;28;20479;-68
2024/01/31 05:02:09;;;;;;;29.95;13.05;;;6.50;99.90;;;;;;4991073;28;20030;-68
2024/01/31 05:04:35;;;;;;;28.63;13.73;;;6.50;99.90;;;;;;5000029;28;20018;-67
2024/01/31 05:07:01;;;;;;;31.52;14.18;;;6.60;99.90;;;;;;5003608;28;20038;-66
2024/01/31 05:09:27;;;;;;;31.67;14.85;;;6.70;99.90;;;;;;5003939;28;20075;-67
2024/01/31 05:11:52;;;;;;;35.13;15.75;;;6.80;99.90;;;;;;5000020;28;20038;-68
2024/01/31 05:14:18;;;;;;;30.45;12.88;;;6.90;99.90;;;;;;5002328;28;20057;-68
2024/01/31 05:16:44;;;;;;;26.00;13.18;;;7.00;99.90;;;;;;5006602;28;20567;-68
2024/01/31 05:19:12;;;;;;;20.65;10.23;;;7.00;99.90;;;;;;5006055;28;20037;-66
2024/01/31 05:21:49;;;;;;;26.75;12.48;;;6.90;99.90;;;;;;5010205;28;20101;-71
2024/01/31 05:24:15;;;;;;;37.25;14.10;;;6.80;99.90;;;;;;5001710;28;20093;-66
2024/01/31 05:26:43;;;;;;;27.02;11.98;;;6.80;99.90;;;;;;4997887;28;20080;-71
2024/01/31 05:29:09;;;;;;;28.77;13.00;;;6.80;99.90;;;;;;5005438;28;20033;-70
2024/01/31 05:31:35;;;;;;;30.25;13.52;;;6.80;99.90;;;;;;4998932;28;20089;-68
2024/01/31 05:34:01;;;;;;;29.98;12.52;;;6.80;99.90;;;;;;4999108;28;20025;-68
2024/01/31 05:36:26;;;;;;;35.70;14.00;;;6.80;99.90;;;;;;5006775;28;20079;-68
2024/01/31 05:38:52;;;;;;;26.13;12.10;;;6.90;99.90;;;;;;5001348;28;20029;-68
2024/01/31 05:41:17;;;;;;;24.83;12.27;;;6.90;99.90;;;;;;5006480;28;20057;-70
2024/01/31 05:43:43;;;;;;;23.35;11.85;;;6.80;99.90;;;;;;4994467;28;20114;-69
2024/01/31 05:46:09;;;;;;;27.67;13.05;;;6.80;99.90;;;;;;4998397;28;20022;-67
2024/01/31 05:48:35;;;;;;;28.30;13.35;;;6.80;99.90;;;;;;5005250;28;20037;-68
2024/01/31 05:51:01;;;;;;;32.67;13.90;;;6.80;99.90;;;;;;4998083;28;20049;-68
2024/01/31 05:53:26;;;;;;;33.65;14.27;;;6.80;99.90;;;;;;4999764;28;20042;-68
2024/01/31 05:55:52;;;;;;;28.48;13.68;;;6.90;99.90;;;;;;4997313;28;20057;-69
2024/01/31 05:58:17;;;;;;;30.85;14.23;;;6.90;99.90;;;;;;5001544;28;20030;-69
2024/01/31 06:00:48;;;;;;;30.05;14.70;;;6.90;99.90;;;;;;5000071;28;20037;-68
2024/01/31 06:03:15;;;;;;;33.63;14.93;;;6.90;99.90;;;;;;5008305;28;20034;-69
2024/01/31 06:05:41;;;;;;;33.10;15.10;;;6.90;99.90;;;;;;5007466;28;20204;-72
2024/01/31 06:08:07;;;;;;;31.40;14.25;;;7.00;99.90;;;;;;5002511;28;20093;-69
2024/01/31 06:10:33;;;;;;;32.97;14.00;;;7.10;99.90;;;;;;4999881;28;20092;-69
2024/01/31 06:12:58;;;;;;;32.47;14.88;;;7.10;99.90;;;;;;5002890;28;20030;-71
2024/01/31 06:15:25;;;;;;;31.30;13.98;;;7.10;99.90;;;;;;5010329;28;20045;-69
2024/01/31 06:17:51;;;;;;;29.00;13.00;;;7.10;99.90;;;;;;5003343;28;20471;-68
2024/01/31 06:20:16;;;;;;;29.27;12.77;;;7.20;99.90;;;;;;5004969;28;20033;-69
2024/01/31 06:22:42;;;;;;;26.65;12.32;;;7.20;99.90;;;;;;5010529;28;20079;-72
2024/01/31 06:25:08;;;;;;;26.90;12.40;;;7.30;99.90;;;;;;5009498;28;20105;-69
2024/01/31 06:27:35;;;;;;;25.02;11.93;;;7.30;99.90;;;;;;5010844;28;20042;-69
2024/01/31 06:30:00;;;;;;;31.73;13.23;;;7.40;99.90;;;;;;5008241;28;20041;-69
2024/01/31 06:32:32;;;;;;;27.48;12.30;;;7.40;99.90;;;;;;5010461;28;20025;-69
2024/01/31 06:34:58;;;;;;;24.90;12.07;;;7.40;99.90;;;;;;5009142;28;20029;-68
2024/01/31 06:37:24;;;;;;;28.15;13.23;;;7.30;99.90;;;;;;5010326;28;20029;-69
2024/01/31 06:39:50;;;;;;;27.13;12.05;;;7.40;99.90;;;;;;5008776;28;20033;-69
2024/01/31 06:42:16;;;;;;;26.48;11.73;;;7.40;99.90;;;;;;5009994;28;20650;-70
2024/01/31 06:44:41;;;;;;;28.08;11.88;;;7.40;99.90;;;;;;5004989;28;20140;-71
2024/01/31 06:47:07;;;;;;;25.92;11.52;;;7.40;99.90;;;;;;5005015;28;20029;-69
2024/01/31 06:49:33;;;;;;;33.97;12.43;;;7.30;99.90;;;;;;4990519;28;20050;-67
2024/01/31 06:51:58;;;;;;;29.27;13.02;;;7.30;99.90;;;;;;4993445;28;20463;-69
2024/01/31 06:54:24;;;;;;;27.27;13.18;;;7.30;99.90;;;;;;4999271;28;20026;-70
2024/01/31 06:56:50;;;;;;;30.92;14.32;;;7.20;99.90;;;;;;5008657;28;20045;-69
2024/01/31 06:59:15;;;;;;;25.48;12.43;;;7.20;99.90;;;;;;5009701;28;20368;-70
2024/01/31 07:01:41;;;;;;;26.25;12.52;;;7.20;99.90;;;;;;5008261;28;20083;-69
2024/01/31 07:04:08;;;;;;;28.17;12.50;;;7.20;99.90;;;;;;5005595;28;20034;-69
2024/01/31 07:06:33;;;;;;;25.55;11.63;;;7.20;99.90;;;;;;5008470;28;20033;-69
2024/01/31 07:08:59;;;;;;;23.98;12.00;;;7.10;99.90;;;;;;5009018;28;20056;-68
2024/01/31 07:11:24;;;;;;;33.35;13.20;;;7.10;99.90;;;;;;5009763;28;20442;-68
2024/01/31 07:13:50;;;;;;;25.55;12.80;;;7.10;99.90;;;;;;5003423;28;20034;-69
2024/01/31 07:16:16;;;;;;;26.92;13.40;;;7.10;99.90;;;;;;4990107;28;20023;-69
2024/01/31 07:18:43;;;;;;;29.90;13.98;;;7.00;99.90;;;;;;4988686;28;20085;-70
2024/01/31 07:21:09;;;;;;;28.83;14.23;;;7.00;99.90;;;;;;4988004;28;20383;-68
2024/01/31 07:23:36;;;;;;;27.48;13.45;;;7.00;99.90;;;;;;4992259;28;20043;-69
2024/01/31 07:26:02;;;;;;;29.10;12.32;;;7.00;99.90;;;;;;5008692;28;20026;-69
2024/01/31 07:28:28;;;;;;;28.35;13.50;;;6.90;99.90;;;;;;5009567;28;20735;-69
2024/01/31 07:30:53;;;;;;;29.65;13.63;;;6.90;99.90;;;;;;5006692;28;20038;-70
2024/01/31 07:33:19;;;;;;;30.27;13.85;;;6.90;99.90;;;;;;5008177;28;20037;-69
2024/01/31 07:35:45;;;;;;;31.58;13.60;;;6.80;99.90;;;;;;4988923;28;20488;-71
2024/01/31 07:38:11;;;;;;;28.95;14.10;;;6.80;99.90;;;;;;4989013;28;20030;-69
2024/01/31 07:40:37;;;;;;;30.52;14.65;;;6.80;99.90;;;;;;4989511;28;20037;-70
2024/01/31 07:43:03;;;;;;;32.72;14.68;;;6.80;99.90;;;;;;4989271;28;20061;-69
2024/01/31 07:45:29;;;;;;;28.50;14.23;;;6.80;99.90;;;;;;5006385;28;20487;-68
2024/01/31 07:47:56;;;;;;;35.75;15.07;;;6.80;99.90;;;;;;5008484;28;20080;-69
2024/01/31 07:50:22;;;;;;;32.78;14.93;;;6.80;99.90;;;;;;5009091;28;20037;-70
2024/01/31 07:52:48;;;;;;;34.00;15.13;;;6.80;99.90;;;;;;5008212;28;20116;-72
2024/01/31 07:55:14;;;;;;;40.58;14.85;;;6.80;99.90;;;;;;4994206;28;20118;-68
2024/01/31 07:57:40;;;;;;;31.80;15.30;;;6.80;99.90;;;;;;4989617;28;20037;-69
2024/01/31 08:00:06;;;;;;;36.65;15.70;;;6.80;99.90;;;;;;4988398;28;20034;-68
2024/01/31 08:02:32;;;;;;;33.88;16.77;;;6.80;99.90;;;;;;4989266;28;20030;-68
2024/01/31 08:04:58;;;;;;;36.25;16.10;;;6.80;99.90;;;;;;5000312;28;20034;-70
2024/01/31 08:07:24;;;;;;;31.42;15.32;;;6.80;99.90;;;;;;5008915;28;20026;-68
2024/01/31 08:09:50;;;;;;;32.67;15.10;;;6.80;99.90;;;;;;5023325;28;20482;-71
2024/01/31 08:12:17;;;;;;;28.88;14.38;;;6.80;99.90;;;;;;5008777;28;20034;-70
2024/01/31 08:14:42;;;;;;;34.05;14.63;;;6.70;99.90;;;;;;5003512;28;20034;-69
2024/01/31 08:17:08;;;;;;;31.70;14.48;;;6.80;99.90;;;;;;5008244;28;20026;-69
2024/01/31 08:19:36;;;;;;;40.35;15.13;;;6.70;99.90;;;;;;4996405;28;20030;-68
2024/01/31 08:22:03;;;;;;;35.85;15.23;;;6.70;99.90;;;;;;4988156;28;20042;-69
2024/01/31 08:24:29;;;;;;;32.83;15.15;;;6.70;99.90;;;;;;4996543;28;20080;-68
2024/01/31 08:26:54;;;;;;;30.60;15.43;;;6.70;99.90;;;;;;5007992;28;20768;-69
2024/01/31 08:29:20;;;;;;;37.30;15.73;;;6.70;99.90;;;;;;4996761;28;20042;-69
2024/01/31 08:31:46;;;;;;;38.95;16.42;;;6.70;99.90;;;;;;4988892;28;20054;-69
2024/01/31 08:34:12;;;;;;;32.10;15.15;;;6.70;99.90;;;;;;5005407;28;20026;-69
2024/01/31 08:36:39;;;;;;;37.63;16.90;;;6.70;99.90;;;;;;5008871;28;20382;-70
2024/01/31 08:39:05;;;;;;;38.03;17.00;;;6.70;99.90;;;;;;5008079;28;20122;-69
2024/01/31 08:41:31;;;;;;;35.50;16.45;;;6.70;99.90;;;;;;5008682;28;20490;-69
2024/01/31 08:43:57;;;;;;;44.45;17.38;;;6.70;99.90;;;;;;4991485;28;20042;-69
2024/01/31 08:46:25;;;;;;;40.80;17.48;;;6.80;99.90;;;;;;4989020;28;20030;-68
2024/01/31 08:48:50;;;;;;;39.80;17.70;;;6.80;99.90;;;;;;4997060;28;20040;-71
2024/01/31 08:51:16;;;;;;;38.55;17.60;;;6.80;99.90;;;;;;5011980;28;20030;-69
2024/01/31 08:53:42;;;;;;;41.75;16.92;;;6.90;99.90;;;;;;4998305;28;20030;-69
2024/01/31 08:56:09;;;;;;;45.17;18.45;;;6.90;99.90;;;;;;4991874;28;20378;-68
2024/01/31 08:58:35;;;;;;;40.72;18.33;;;7.00;99.90;;;;;;4992767;28;20110;-68
2024/01/31 09:01:01;;;;;;;40.72;18.48;;;7.00;99.90;;;;;;4999268;28;20026;-69
2024/01/31 09:03:26;;;;;;;38.97;17.83;;;7.00;99.90;;;;;;5000540;28;20053;-69
2024/01/31 09:05:53;;;;;;;42.33;19.30;;;7.10;99.90;;;;;;5007649;28;20117;-71
2024/01/31 09:08:20;;;;;;;47.50;20.20;;;7.10;99.90;;;;;;5012137;28;20033;-69
2024/01/31 09:10:45;;;;;;;48.30;19.90;;;7.20;99.90;;;;;;5002735;28;20084;-69
2024/01/31 09:13:11;;;;;;;47.30;20.73;;;7.20;99.90;;;;;;4997940;28;20033;-68
2024/01/31 09:15:37;;;;;;;46.88;19.80;;;7.30;99.90;;;;;;5011659;28;20022;-69
2024/01/31 09:18:03;;;;;;;50.05;19.42;;;7.30;99.90;;;;;;5010915;28;20109;-69
2024/01/31 09:20:29;;;;;;;46.28;20.55;;;7.40;99.90;;;;;;5011573;28;20057;-69
2024/01/31 09:22:55;;;;;;;49.45;20.48;;;7.40;99.90;;;;;;5004793;28;20058;-72
2024/01/31 09:25:20;;;;;;;55.83;20.25;;;7.50;99.90;;;;;;4992270;28;20109;-67
2024/01/31 09:27:46;;;;;;;51.85;19.75;;;7.60;99.90;;;;;;4996591;28;20429;-69
2024/01/31 09:30:12;;;;;;;46.67;20.65;;;7.70;99.90;;;;;;5010713;28;20018;-68
2024/01/31 09:32:39;;;;;;;46.58;18.60;;;7.70;99.90;;;;;;5011199;28;20025;-69
2024/01/31 09:35:05;;;;;;;48.08;19.35;;;7.70;99.90;;;;;;5010784;28;20076;-69
2024/01/31 09:37:32;;;;;;;48.53;20.60;;;7.70;99.90;;;;;;5011453;28;20034;-69
2024/01/31 09:39:59;;;;;;;50.05;21.13;;;7.70;99.90;;;;;;5010928;28;20379;-69
2024/01/31 09:42:25;;;;;;;53.10;21.13;;;7.80;99.90;;;;;;5010188;28;20092;-68
2024/01/31 09:44:54;;;;;;;49.53;20.50;;;7.70;99.90;;;;;;4990059;28;20043;-69
2024/01/31 09:47:21;;;;;;;54.72;22.30;;;7.80;99.90;;;;;;4991634;28;20023;-69
2024/01/31 09:49:47;;;;;;;50.00;21.02;;;7.80;99.90;;;;;;4992106;28;20466;-70
2024/01/31 09:52:18;;;;;;;50.78;21.13;;;7.80;99.90;;;;;;4990904;28;20040;-69
2024/01/31 09:54:46;;;;;;;57.13;22.27;;;7.90;99.90;;;;;;4991955;28;20095;-69
2024/01/31 09:57:12;;;;;;;51.35;22.33;;;7.90;99.90;;;;;;4990441;28;20488;-68
2024/01/31 09:59:38;;;;;;;52.75;21.58;;;7.90;99.90;;;;;;4990883;28;20479;-69
2024/01/31 10:02:08;;;;;;;51.83;20.58;;;8.00;99.90;;;;;;4990969;28;20042;-69
2024/01/31 10:04:33;;;;;;;44.53;20.00;;;8.10;99.90;;;;;;5008448;28;20030;-69
2024/01/31 10:06:59;;;;;;;47.45;19.48;;;8.10;99.90;;;;;;5010167;28;20030;-70
2024/01/31 10:09:24;;;;;;;50.17;20.10;;;8.20;99.90;;;;;;5011151;28;20076;-70
2024/01/31 10:11:50;;;;;;;47.55;20.83;;;8.20;99.90;;;;;;4992124;28;20050;-70
2024/01/31 10:14:16;;;;;;;45.47;19.75;;;8.20;99.90;;;;;;4993949;28;20034;-70
2024/01/31 10:16:41;;;;;;;46.00;19.65;;;8.30;99.90;;;;;;4991279;28;20080;-68
2024/01/31 10:19:07;;;;;;;52.40;20.38;;;8.30;99.90;;;;;;4990354;28;20033;-69
2024/01/31 10:21:33;;;;;;;52.75;19.70;;;8.40;99.90;;;;;;4991246;28;20435;-69
2024/01/31 10:23:59;;;;;;;43.50;19.65;;;8.40;99.90;;;;;;5002369;28;20038;-72
2024/01/31 10:26:26;;;;;;;50.92;20.13;;;8.50;99.90;;;;;;5010532;28;20120;-69
2024/01/31 10:28:52;;;;;;;42.30;19.42;;;8.50;99.90;;;;;;5010547;28;20026;-70
2024/01/31 10:31:18;;;;;;;46.83;19.30;;;8.60;99.90;;;;;;5009544;28;20026;-69
2024/01/31 10:33:44;;;;;;;46.10;19.50;;;8.60;99.90;;;;;;5001931;28;20104;-70
2024/01/31 10:36:10;;;;;;;50.28;20.42;;;8.60;99.90;;;;;;5007844;28;20034;-70
2024/01/31 10:38:38;;;;;;;44.50;19.50;;;8.60;99.90;;;;;;5025621;28;20113;-69
2024/01/31 10:41:07;;;;;;;47.17;20.13;;;8.80;99.90;;;;;;5024522;28;20088;-69
2024/01/31 10:43:34;;;;;;;38.92;18.40;;;8.90;99.90;;;;;;5024907;28;20099;-69
2024/01/31 10:46:00;;;;;;;47.30;19.48;;;9.00;99.90;;;;;;5009692;28;20072;-71
2024/01/31 10:48:26;;;;;;;49.15;18.48;;;9.00;99.90;;;;;;5010225;28;20463;-70
2024/01/31 10:50:54;;;;;;;41.03;18.17;;;9.00;99.90;;;;;;5009784;28;20742;-70
2024/01/31 10:53:22;;;;;;;46.42;18.50;;;9.10;99.90;;;;;;5008781;28;20033;-70
2024/01/31 10:55:48;;;;;;;43.58;18.02;;;9.10;99.90;;;;;;5010064;28;20103;-70
2024/01/31 10:58:14;;;;;;;40.42;17.23;;;9.10;99.90;;;;;;5009296;28;20026;-68
2024/01/31 11:00:46;;;;;;;38.55;17.60;;;9.10;99.90;;;;;;5009976;28;20048;-70
2024/01/31 11:03:15;;;;;;;41.75;16.95;;;9.20;99.90;;;;;;5008591;28;20080;-69
2024/01/31 11:05:41;;;;;;;34.55;16.52;;;9.20;99.90;;;;;;5024987;28;20118;-69
2024/01/31 11:08:21;;;;;;;34.40;16.27;;;9.30;99.90;;;;;;5006083;28;20036;-70
2024/01/31 11:10:47;;;;;;;36.30;15.98;;;9.40;99.90;;;;;;5009260;28;20483;-70
2024/01/31 11:13:14;;;;;;;34.95;16.33;;;9.30;99.90;;;;;;5007928;28;20092;-69
2024/01/31 11:15:40;;;;;;;35.30;15.80;;;9.30;99.90;;;;;;5009682;28;20455;-70
2024/01/31 11:18:09;;;;;;;33.38;15.57;;;9.30;99.90;;;;;;5008944;28;20104;-69
2024/01/31 11:20:44;;;;;;;34.00;15.82;;;9.30;99.90;;;;;;5009640;28;20030;-69
2024/01/31 11:23:20;;;;;;;36.05;16.13;;;9.30;99.90;;;;;;5006006;28;20431;-70
2024/01/31 11:25:46;;;;;;;37.08;16.20;;;9.40;99.90;;;;;;4989748;28;20542;-70
2024/01/31 11:28:13;;;;;;;32.63;15.70;;;9.40;99.90;;;;;;4991185;28;20023;-66
2024/01/31 11:30:39;;;;;;;40.00;17.35;;;9.40;99.90;;;;;;5004851;28;20050;-70
2024/01/31 11:33:05;;;;;;;30.15;14.98;;;9.40;99.90;;;;;;4990599;28;20045;-69
2024/01/31 11:35:32;;;;;;;34.13;15.18;;;9.40;99.90;;;;;;5009069;28;20036;-68
2024/01/31 11:37:59;;;;;;;30.90;15.18;;;9.40;99.90;;;;;;5003550;28;20053;-68
2024/01/31 11:40:25;;;;;;;32.58;14.75;;;9.40;99.90;;;;;;4989239;28;20114;-70
2024/01/31 11:42:52;;;;;;;32.40;14.80;;;9.50;99.90;;;;;;4989249;28;20541;-70
2024/01/31 11:45:18;;;;;;;26.95;13.88;;;9.40;99.90;;;;;;4988583;28;20533;-70
2024/01/31 11:47:44;;;;;;;31.08;14.35;;;9.40;99.90;;;;;;4989624;28;20070;-70
2024/01/31 11:50:09;;;;;;;28.92;13.85;;;9.40;99.90;;;;;;4987423;28;20372;-70
2024/01/31 11:52:35;;;;;;;30.55;13.98;;;9.40;99.90;;;;;;5004542;28;20038;-69
2024/01/31 11:55:01;;;;;;;32.22;13.80;;;9.40;99.90;;;;;;4999930;28;20026;-72
2024/01/31 11:57:26;;;;;;;28.08;13.68;;;9.30;99.90;;;;;;5008645;28;20026;-69
2024/01/31 11:59:53;;;;;;;29.85;13.13;;;9.30;99.90;;;;;;5008357;28;20026;-69
2024/01/31 12:02:19;;;;;;;29.73;13.23;;;9.50;99.90;;;;;;5006823;28;20030;-70
2024/01/31 12:04:56;;;;;;;28.67;13.70;;;9.50;99.90;;;;;;4998888;28;20127;-70
2024/01/31 12:07:22;;;;;;;26.98;13.40;;;9.50;99.90;;;;;;4988707;28;20596;-70
2024/01/31 12:09:48;;;;;;;27.23;12.95;;;9.40;99.90;;;;;;4988108;28;20038;-70
2024/01/31 12:12:14;;;;;;;29.35;13.35;;;9.40;99.90;;;;;;4988403;28;20538;-69
2024/01/31 12:14:40;;;;;;;28.13;12.50;;;9.50;99.90;;;;;;4996701;28;20073;-67
2024/01/31 12:17:20;;;;;;;33.13;12.93;;;9.30;99.90;;;;;;5008392;28;20038;-70
2024/01/31 12:19:46;;;;;;;27.88;12.80;;;9.30;99.90;;;;;;5008971;28;20037;-70
2024/01/31 12:22:12;;;;;;;26.10;12.93;;;9.30;99.90;;;;;;5008207;28;20034;-71
2024/01/31 12:24:38;;;;;;;30.67;12.52;;;9.40;99.90;;;;;;5006376;28;20032;-70
2024/01/31 12:27:04;;;;;;;29.55;12.95;;;9.50;99.90;;;;;;4992757;28;20030;-72
2024/01/31 12:29:30;;;;;;;26.77;12.45;;;9.50;99.90;;;;;;4993223;28;20062;-69
2024/01/31 12:31:56;;;;;;;28.30;13.75;;;9.50;99.90;;;;;;4992920;28;20042;-70